Time;durP1;ratioP1;P1;durP2;ratioP2;P2;SDS_P1;SDS_P2;PMS_P1;PMS_P2;Temp;Humidity;BMP_temperature;BMP_pressure;BME280_temperature;BME280_humidity;BME280_pressure;Samples;Min_cycle;Max_cycle;Signal;HPM_P1;HPM_P2
2022/10/20 00:03:24;;;;;;;18.40;8.10;;;;;;;3.23;91.00;100433.53;8510412;27;20080;-80
2022/10/20 00:07:25;;;;;;;18.83;7.78;;;;;;;3.21;91.22;100435.63;8469795;27;20035;-80
2022/10/20 00:11:27;;;;;;;18.67;8.48;;;;;;;3.13;91.35;100443.94;8509563;27;20146;-80
2022/10/20 00:15:28;;;;;;;18.23;7.45;;;;;;;3.14;91.28;100440.25;8506099;27;20058;-80
2022/10/20 00:19:29;;;;;;;16.08;8.25;;;;;;;3.11;91.06;100432.69;8503454;27;20049;-80
2022/10/20 00:23:30;;;;;;;21.45;9.60;;;;;;;3.13;91.38;100434.09;8500816;27;20058;-80
2022/10/20 00:27:30;;;;;;;21.17;9.35;;;;;;;3.09;91.37;100437.44;8516077;27;20034;-79
2022/10/20 00:31:31;;;;;;;22.80;8.55;;;;;;;2.96;91.23;100433.91;8460906;27;20053;-79
2022/10/20 00:35:36;;;;;;;19.83;8.30;;;;;;;2.93;91.20;100425.56;8495855;27;20047;-80
2022/10/20 00:39:37;;;;;;;19.98;9.20;;;;;;;2.90;91.36;100429.50;8457109;27;20488;-80
2022/10/20 00:43:57;;;;;;;17.25;9.38;;;;;;;2.91;91.57;100420.44;8516702;27;20065;-80
2022/10/20 00:48:26;;;;;;;21.98;8.55;;;;;;;2.88;91.34;100414.75;8456877;27;20043;-79
2022/10/20 00:52:27;;;;;;;17.80;8.98;;;;;;;2.87;90.88;100413.94;8369509;28;20056;-80
2022/10/20 00:56:28;;;;;;;23.38;10.07;;;;;;;2.79;90.73;100411.59;8383753;28;20052;-80
2022/10/20 01:00:29;;;;;;;23.90;10.13;;;;;;;2.75;91.04;100410.38;8312858;28;20506;-80
2022/10/20 01:04:31;;;;;;;22.83;11.10;;;;;;;2.75;91.41;100410.38;8319058;28;20064;-79
2022/10/20 01:08:31;;;;;;;25.58;10.73;;;;;;;2.75;91.30;100402.38;8305560;28;20037;-80
2022/10/20 01:12:59;;;;;;;21.67;9.90;;;;;;;2.72;91.39;100400.19;8305188;28;20479;-80
2022/10/20 01:17:22;;;;;;;24.52;11.45;;;;;;;2.67;91.36;100402.72;8303910;28;20194;-80
2022/10/20 01:21:56;;;;;;;23.42;10.27;;;;;;;2.65;91.19;100399.44;8283841;28;20557;-80
2022/10/20 01:26:24;;;;;;;31.90;10.57;;;;;;;2.65;91.45;100401.31;8219042;28;20051;-80
2022/10/20 01:30:25;;;;;;;23.20;10.40;;;;;;;2.59;91.50;100395.03;8257240;28;20054;-79
2022/10/20 01:34:29;;;;;;;19.83;9.18;;;;;;;2.60;91.39;100396.66;8244456;28;20050;-80
2022/10/20 01:38:43;;;;;;;14.68;6.70;;;;;;;2.62;91.50;100389.25;8335670;28;20060;-81
2022/10/20 01:42:45;;;;;;;16.30;6.93;;;;;;;2.67;91.68;100397.38;8296751;28;20052;-81
2022/10/20 01:46:47;;;;;;;12.52;6.13;;;;;;;2.69;91.66;100384.66;8280499;28;20045;-81
2022/10/20 01:50:49;;;;;;;12.75;5.78;;;;;;;2.76;91.97;100385.34;8267532;28;20053;-81
2022/10/20 01:54:50;;;;;;;12.20;6.05;;;;;;;2.84;92.16;100386.91;8283034;28;20038;-81
2022/10/20 01:59:10;;;;;;;14.57;6.72;;;;;;;2.95;92.00;100383.47;8285851;28;20077;-81
2022/10/20 02:03:33;;;;;;;14.30;5.95;;;;;;;3.02;92.03;100383.34;8363134;28;20051;-81
2022/10/20 02:07:34;;;;;;;15.50;6.22;;;;;;;3.11;91.85;100376.66;8437053;28;20419;-81
2022/10/20 02:11:41;;;;;;;45.95;7.72;;;;;;;3.18;92.11;100372.00;8438257;28;20105;-81
2022/10/20 02:15:47;;;;;;;12.93;5.28;;;;;;;3.24;91.96;100369.22;8433894;27;20043;-81
2022/10/20 02:19:51;;;;;;;9.65;4.65;;;;;;;3.29;92.13;100374.69;8438960;28;20058;-81
2022/10/20 02:23:53;;;;;;;14.68;4.90;;;;;;;3.33;92.30;100367.84;8436013;28;20054;-81
2022/10/20 02:27:56;;;;;;;10.07;5.10;;;;;;;3.37;92.45;100382.38;8452404;28;20043;-81
2022/10/20 02:31:57;;;;;;;15.75;5.68;;;;;;;3.41;92.54;100377.38;8451337;28;20055;-81
2022/10/20 02:35:59;;;;;;;14.20;5.28;;;;;;;3.42;92.87;100384.34;8454720;28;20043;-80
2022/10/20 02:39:59;;;;;;;11.77;4.93;;;;;;;3.41;93.21;100380.06;8453079;28;20062;-80
2022/10/20 02:44:01;;;;;;;14.27;4.85;;;;;;;3.42;93.16;100384.34;8450004;28;20487;-80
2022/10/20 02:48:02;;;;;;;9.15;4.53;;;;;;;3.40;93.73;100379.25;8447383;27;20508;-80
2022/10/20 02:52:03;;;;;;;13.75;5.32;;;;;;;3.39;93.80;100376.78;8489507;27;20527;-80
2022/10/20 02:56:04;;;;;;;13.68;4.53;;;;;;;3.40;93.94;100375.75;8483506;27;20062;-80
2022/10/20 03:00:06;;;;;;;14.00;4.65;;;;;;;3.42;93.85;100373.69;8478165;27;20492;-80
2022/10/20 03:04:07;;;;;;;9.70;4.57;;;;;;;3.43;93.90;100372.63;8480085;27;20429;-80
2022/10/20 03:08:08;;;;;;;10.70;4.32;;;;;;;3.40;94.16;100371.22;8483415;27;20043;-81
2022/10/20 03:12:09;;;;;;;12.88;4.10;;;;;;;3.42;94.33;100379.00;8474745;27;20060;-80
2022/10/20 03:16:10;;;;;;;9.18;4.00;;;;;;;3.45;94.26;100378.53;8486594;27;20065;-80
2022/10/20 03:20:11;;;;;;;14.77;4.10;;;;;;;3.48;94.17;100387.97;8511356;27;20051;-80
2022/10/20 03:24:12;;;;;;;10.27;4.40;;;;;;;3.50;94.27;100386.66;8521263;27;20050;-80
2022/10/20 03:28:12;;;;;;;16.02;3.72;;;;;;;3.51;94.52;100393.66;8472497;27;20126;-81
2022/10/20 03:32:13;;;;;;;8.77;3.65;;;;;;;3.52;94.57;100395.28;8513666;27;20047;-81
2022/10/20 03:36:14;;;;;;;13.02;4.22;;;;;;;3.49;94.67;100389.59;8518784;27;20058;-82
2022/10/20 03:40:16;;;;;;;7.03;4.10;;;;;;;3.48;94.92;100399.47;8502073;27;20099;-82
2022/10/20 03:44:17;;;;;;;12.80;4.13;;;;;;;3.46;94.65;100396.19;8520709;27;20049;-82
2022/10/20 03:48:18;;;;;;;9.55;4.20;;;;;;;3.45;95.08;100399.91;8460003;27;20047;-81
2022/10/20 03:52:18;;;;;;;12.00;4.22;;;;;;;3.44;95.05;100392.94;8500321;27;20122;-82
2022/10/20 03:56:20;;;;;;;10.18;4.47;;;;;;;3.43;95.01;100399.34;8503066;27;20047;-81
2022/10/20 04:00:21;;;;;;;10.55;4.13;;;;;;;3.42;95.24;100399.56;8499784;27;20616;-81
2022/10/20 04:04:22;;;;;;;13.13;4.70;;;;;;;3.39;94.96;100390.16;8507905;27;20051;-81
2022/10/20 04:08:23;;;;;;;12.45;5.07;;;;;;;3.39;95.21;100390.16;8494411;27;20099;-81
2022/10/20 04:12:24;;;;;;;14.35;5.55;;;;;;;3.39;95.23;100395.47;8507483;27;20460;-82
2022/10/20 04:16:25;;;;;;;17.48;5.35;;;;;;;3.39;95.42;100395.47;8494915;27;20047;-82
2022/10/20 04:20:26;;;;;;;19.10;5.68;;;;;;;3.39;95.13;100379.47;8499420;27;20098;-82
2022/10/20 04:24:27;;;;;;;21.98;5.40;;;;;;;3.37;95.19;100376.22;8495631;27;20456;-82
2022/10/20 04:28:28;;;;;;;16.35;5.72;;;;;;;3.35;95.29;100375.63;8494077;27;20506;-81
2022/10/20 04:32:29;;;;;;;15.45;5.60;;;;;;;3.33;95.22;100375.06;8500840;27;20039;-82
2022/10/20 04:36:30;;;;;;;19.05;6.03;;;;;;;3.32;95.19;100374.25;8511432;27;20035;-81
2022/10/20 04:40:31;;;;;;;17.95;5.60;;;;;;;3.32;95.30;100368.09;8474689;28;20078;-81
2022/10/20 04:44:32;;;;;;;14.18;5.80;;;;;;;3.30;95.54;100370.16;8495055;27;20051;-81
2022/10/20 04:48:32;;;;;;;16.25;6.30;;;;;;;3.29;95.40;100363.19;8504652;27;20041;-81
2022/10/20 04:52:34;;;;;;;17.75;6.95;;;;;;;3.28;95.67;100361.56;8502363;27;20039;-82
2022/10/20 04:56:34;;;;;;;18.80;8.27;;;;;;;3.28;95.64;100356.22;8527226;27;20121;-82
2022/10/20 05:00:36;;;;;;;22.98;10.32;;;;;;;3.28;95.65;100356.22;8475265;27;20038;-82
2022/10/20 05:04:37;;;;;;;19.02;9.57;;;;;;;3.28;95.79;100350.88;8525073;27;20074;-82
2022/10/20 05:08:39;;;;;;;17.92;9.05;;;;;;;3.29;95.54;100352.53;8517709;27;20464;-82
2022/10/20 05:12:39;;;;;;;23.52;10.10;;;;;;;3.28;95.40;100334.88;8529322;27;20125;-82
2022/10/20 05:16:40;;;;;;;20.83;10.85;;;;;;;3.27;95.55;100328.75;8521354;27;20069;-82
2022/10/20 05:20:41;;;;;;;27.83;10.38;;;;;;;3.29;95.46;100331.97;8477083;27;20055;-81
2022/10/20 05:24:42;;;;;;;23.20;10.70;;;;;;;3.29;95.65;100333.84;8492949;27;20051;-81
2022/10/20 05:28:46;;;;;;;23.70;8.82;;;;;;;3.31;95.57;100334.44;8479740;27;20488;-81
2022/10/20 05:32:47;;;;;;;23.02;10.27;;;;;;;3.36;95.61;100331.88;8522162;27;20134;-81
2022/10/20 05:36:48;;;;;;;21.25;10.45;;;;;;;3.39;95.60;100336.75;8506355;27;20107;-81
2022/10/20 05:40:49;;;;;;;16.65;7.80;;;;;;;3.44;95.51;100333.41;8520823;27;20500;-81
2022/10/20 05:44:50;;;;;;;22.92;9.52;;;;;;;3.47;95.78;100348.94;8512364;27;20130;-81
2022/10/20 05:48:56;;;;;;;19.95;10.43;;;;;;;3.48;95.79;100340.72;8527133;27;20035;-81
2022/10/20 05:52:57;;;;;;;24.23;10.45;;;;;;;3.53;95.65;100342.69;8497817;27;20062;-80
2022/10/20 05:56:58;;;;;;;16.67;8.45;;;;;;;3.54;95.87;100345.13;8503704;27;20043;-80
2022/10/20 06:01:10;;;;;;;29.42;11.25;;;;;;;3.58;95.72;100362.31;8524353;27;20474;-82
2022/10/20 06:05:11;;;;;;;29.20;13.13;;;;;;;3.61;95.77;100356.47;8497850;27;20065;-81
2022/10/20 06:09:11;;;;;;;20.70;10.73;;;;;;;3.67;95.70;100357.41;8497028;27;20114;-81
2022/10/20 06:13:12;;;;;;;21.65;10.55;;;;;;;3.71;95.82;100364.72;8509611;27;20462;-82
2022/10/20 06:17:13;;;;;;;19.48;9.77;;;;;;;3.76;95.88;100362.16;8522456;27;20055;-82
2022/10/20 06:21:22;;;;;;;24.65;10.38;;;;;;;3.81;95.82;100362.28;8502392;27;20046;-83
2022/10/20 06:25:23;;;;;;;24.45;9.50;;;;;;;3.85;95.79;100361.84;8461277;27;20623;-82
2022/10/20 06:29:26;;;;;;;22.73;8.95;;;;;;;3.90;95.70;100364.63;8461287;27;20055;-82
2022/10/20 06:33:29;;;;;;;27.10;8.60;;;;;;;3.95;95.78;100367.38;8448995;27;20511;-82
2022/10/20 06:37:30;;;;;;;16.42;8.20;;;;;;;4.04;95.54;100374.00;8489889;27;20433;-82
2022/10/20 06:41:31;;;;;;;33.88;8.07;;;;;;;4.13;95.24;100373.38;8516110;27;20047;-82
2022/10/20 06:45:32;;;;;;;18.67;9.13;;;;;;;4.21;95.34;100388.28;8499615;27;20063;-83
2022/10/20 06:49:36;;;;;;;20.83;10.13;;;;;;;4.30;95.27;100381.50;8507626;27;20111;-82
2022/10/20 06:53:37;;;;;;;28.92;14.82;;;;;;;4.40;95.07;100392.41;8502027;27;20088;-81
2022/10/20 06:57:38;;;;;;;20.98;10.77;;;;;;;4.51;94.99;100404.13;8496256;27;20567;-81
2022/10/20 07:01:40;;;;;;;21.42;8.82;;;;;;;4.58;94.90;100394.91;8496131;27;20092;-81
2022/10/20 07:05:41;;;;;;;19.42;8.45;;;;;;;4.66;94.70;100391.84;8475814;27;20043;-81
2022/10/20 07:09:42;;;;;;;21.38;11.27;;;;;;;4.75;94.49;100399.50;8466100;27;20487;-83
2022/10/20 07:13:43;;;;;;;22.27;10.35;;;;;;;4.88;94.41;100399.19;8512227;27;20071;-80
2022/10/20 07:17:44;;;;;;;25.70;10.18;;;;;;;4.97;94.18;100403.13;8477786;27;20059;-80
2022/10/20 07:21:45;;;;;;;18.50;9.60;;;;;;;5.09;93.94;100406.53;8501573;27;20086;-81
2022/10/20 07:25:46;;;;;;;24.67;10.10;;;;;;;5.14;93.69;100393.25;8495701;27;20389;-80
2022/10/20 07:29:46;;;;;;;21.55;9.73;;;;;;;5.16;93.60;100388.47;8495897;27;20053;-80
2022/10/20 07:33:48;;;;;;;16.95;9.27;;;;;;;5.17;93.56;100387.44;8515045;27;20038;-82
2022/10/20 07:37:52;;;;;;;20.15;9.70;;;;;;;5.24;93.50;100372.00;8499980;27;20043;-82
2022/10/20 07:41:53;;;;;;;18.45;10.02;;;;;;;5.30;93.38;100381.75;8480356;27;20424;-81
2022/10/20 07:45:54;;;;;;;22.60;10.23;;;;;;;5.39;93.33;100385.63;8508312;27;20050;-83
2022/10/20 07:49:55;;;;;;;33.60;11.85;;;;;;;5.50;93.29;100376.69;8503102;27;20398;-81
2022/10/20 07:54:05;;;;;;;21.83;10.50;;;;;;;5.63;93.25;100366.72;8507857;27;20043;-81
2022/10/20 07:58:06;;;;;;;26.15;12.82;;;;;;;5.75;92.77;100372.78;8511001;27;20411;-82
2022/10/20 08:02:09;;;;;;;27.65;14.13;;;;;;;5.85;92.29;100372.94;8516455;27;20050;-84
2022/10/20 08:06:10;;;;;;;35.42;17.02;;;;;;;5.89;92.16;100372.22;8493742;27;20437;-81
2022/10/20 08:10:11;;;;;;;34.85;15.73;;;;;;;6.01;91.98;100366.75;8473839;27;20054;-81
2022/10/20 08:14:12;;;;;;;32.90;17.00;;;;;;;6.15;91.92;100359.97;8508493;27;20133;-81
2022/10/20 08:18:13;;;;;;;36.88;16.08;;;;;;;6.21;91.42;100361.66;8486922;27;20096;-83
2022/10/20 08:22:17;;;;;;;35.28;16.08;;;;;;;6.27;91.33;100355.28;8507314;27;20051;-80
2022/10/20 08:26:23;;;;;;;27.70;13.75;;;;;;;6.39;91.15;100362.41;8484266;27;20126;-80
2022/10/20 08:30:25;;;;;;;22.35;10.57;;;;;;;6.60;91.04;100353.53;8528519;27;20541;-80
2022/10/20 08:34:25;;;;;;;20.92;8.57;;;;;;;6.84;90.92;100359.38;8500778;27;20039;-79
2022/10/20 08:38:26;;;;;;;27.55;9.07;;;;;;;7.03;90.20;100353.41;8454004;27;20055;-82
2022/10/20 08:42:27;;;;;;;14.93;8.18;;;;;;;7.18;90.17;100367.00;8509196;27;20127;-80
2022/10/20 08:46:36;;;;;;;17.00;8.13;;;;;;;7.27;89.70;100363.81;8477209;27;20044;-81
2022/10/20 08:50:39;;;;;;;;;;;;;;;7.31;89.61;100370.28;8469494;27;20043;-80
2022/10/20 08:54:40;;;;;;;18.45;8.40;;;;;;;7.41;89.51;100365.00;8475803;28;19928;-81
2022/10/20 08:58:43;;;;;;;26.50;7.70;;;;;;;7.50;89.29;100358.09;8472060;27;20441;-80
2022/10/20 09:02:46;;;;;;;17.83;8.70;;;;;;;7.63;88.61;100363.00;8493728;27;20039;-80
2022/10/20 09:06:51;;;;;;;19.33;8.57;;;;;;;7.69;88.36;100361.97;8475213;28;20134;-81
2022/10/20 09:10:54;;;;;;;20.70;8.93;;;;;;;7.79;88.35;100345.91;8493406;27;20069;-80
2022/10/20 09:14:58;;;;;;;18.90;8.68;;;;;;;7.96;88.16;100351.94;8455118;27;20051;-81
2022/10/20 09:19:00;;;;;;;15.65;7.90;;;;;;;8.07;87.41;100347.41;8440735;28;20055;-80
2022/10/20 09:23:01;;;;;;;19.52;8.90;;;;;;;8.18;87.46;100353.66;8446855;28;20051;-80
2022/10/20 09:27:22;;;;;;;16.00;7.95;;;;;;;8.38;86.39;100353.75;8438202;28;20044;-80
2022/10/20 09:31:43;;;;;;;19.92;9.27;;;;;;;8.50;86.18;100346.28;8457408;28;20115;-80
2022/10/20 09:35:46;;;;;;;16.33;9.15;;;;;;;8.61;85.79;100350.63;8430906;28;20046;-80
2022/10/20 09:39:56;;;;;;;19.42;8.10;;;;;;;8.79;85.04;100355.50;8456446;28;20051;-80
2022/10/20 09:44:07;;;;;;;17.15;7.43;;;;;;;8.94;85.02;100345.81;8447957;28;20047;-82
2022/10/20 09:48:30;;;;;;;18.67;6.80;;;;;;;9.10;83.52;100333.97;8451434;28;20074;-80
2022/10/20 09:52:46;;;;;;;17.33;5.95;;;;;;;9.19;82.92;100332.38;8465338;28;20609;-80
2022/10/20 09:56:48;;;;;;;13.63;6.28;;;;;;;9.37;82.22;100329.13;8463864;28;20051;-83
2022/10/20 10:01:15;;;;;;;15.75;6.63;;;;;;;9.48;80.18;100325.34;8463570;28;20131;-80
2022/10/20 10:05:19;;;;;;;19.73;5.72;;;;;;;9.64;79.62;100318.03;8360000;28;20052;-81
2022/10/20 10:09:33;;;;;;;12.25;4.63;;;;;;;9.80;78.22;100322.31;8359821;28;20052;-79
2022/10/20 10:13:41;;;;;;;14.13;5.65;;;;;;;9.90;77.28;100316.06;8343155;28;20477;-81
2022/10/20 10:17:43;;;;;;;16.63;5.32;;;;;;;9.96;77.78;100309.56;8356369;28;20512;-80
2022/10/20 10:21:58;;;;;;;10.43;4.95;;;;;;;9.96;77.40;100305.00;8375990;28;20558;-80
2022/10/20 10:26:03;;;;;;;11.02;5.53;;;;;;;10.06;76.52;100298.75;8351416;28;20049;-80
2022/10/20 10:30:28;;;;;;;11.48;4.28;;;;;;;10.14;76.45;100296.28;8383410;28;20059;-84
2022/10/20 10:34:57;;;;;;;15.95;3.83;;;;;;;10.30;74.39;100294.34;8362082;28;20738;-81
2022/10/20 10:38:58;;;;;;;13.50;5.05;;;;;;;10.38;74.27;100291.06;8378476;28;20060;-81
2022/10/20 10:43:28;;;;;;;12.25;4.90;;;;;;;10.35;74.99;100291.63;8470197;27;20135;-81
2022/10/20 10:47:52;;;;;;;22.92;5.63;;;;;;;10.47;74.86;100277.78;8481568;27;20043;-80
2022/10/20 10:52:18;;;;;;;15.35;5.47;;;;;;;10.60;74.24;100277.16;8466217;27;20381;-79
2022/10/20 10:56:45;;;;;;;10.55;4.32;;;;;;;10.66;73.82;100280.63;8468243;27;20423;-81
2022/10/20 11:01:08;;;;;;;8.00;3.97;;;;;;;10.75;72.83;100268.13;8477603;27;20092;-80
2022/10/20 11:05:21;;;;;;;9.90;4.43;;;;;;;10.83;72.34;100259.44;8482117;27;20039;-81
2022/10/20 11:09:34;;;;;;;12.68;4.60;;;;;;;10.96;71.99;100261.50;8471621;27;20127;-81
2022/10/20 11:13:42;;;;;;;8.98;4.55;;;;;;;11.07;72.20;100254.91;8464793;27;20196;-82
2022/10/20 11:18:08;;;;;;;10.57;4.35;;;;;;;11.02;71.49;100252.25;8489396;27;20050;-81
2022/10/20 11:22:39;;;;;;;11.00;4.53;;;;;;;10.98;70.92;100245.81;8511431;27;20039;-81
2022/10/20 11:26:43;;;;;;;11.15;4.93;;;;;;;11.02;71.04;100236.03;8524684;27;20479;-80
2022/10/20 11:30:47;;;;;;;14.07;4.32;;;;;;;11.04;70.93;100223.06;8511305;27;20049;-80
2022/10/20 11:35:07;;;;;;;8.95;4.10;;;;;;;11.09;70.98;100225.72;8490732;27;20050;-79
2022/10/20 11:39:24;;;;;;;7.43;3.92;;;;;;;11.14;70.76;100217.53;8518751;27;20114;-81
2022/10/20 11:43:34;;;;;;;12.55;4.40;;;;;;;11.20;69.67;100211.00;8486879;27;20125;-80
2022/10/20 11:47:38;;;;;;;8.43;4.18;;;;;;;11.27;69.31;100203.34;8480532;27;20499;-81
2022/10/20 11:51:45;;;;;;;12.55;4.88;;;;;;;11.27;69.31;100195.22;8504649;27;20058;-80
2022/10/20 11:56:11;;;;;;;10.18;4.55;;;;;;;11.34;68.16;100184.06;8509803;27;20456;-81
2022/10/20 12:05:41;;;;;;;7.35;3.90;;;;;;;11.37;67.38;100157.25;8336340;28;20049;-80
2022/10/20 12:10:08;;;;;;;8.25;3.50;;;;;;;11.31;67.10;100163.84;8336334;28;20060;-80
2022/10/20 12:14:15;;;;;;;12.32;4.13;;;;;;;11.33;67.71;100155.41;8344226;28;20138;-80
2022/10/20 12:18:27;;;;;;;7.47;3.70;;;;;;;11.27;66.98;100162.78;8329550;28;20642;-80
2022/10/20 12:22:28;;;;;;;9.55;3.15;;;;;;;11.25;66.82;100154.16;8319905;28;20062;-81
2022/10/20 12:26:29;;;;;;;7.78;3.25;;;;;;;11.26;67.31;100139.53;8321909;28;20049;-79
2022/10/20 12:30:41;;;;;;;11.57;3.88;;;;;;;11.26;67.10;100144.94;8335725;28;20049;-80
2022/10/20 12:34:43;;;;;;;7.43;3.08;;;;;;;11.25;67.02;100137.94;8354059;28;20054;-81
2022/10/20 12:38:49;;;;;;;7.88;3.03;;;;;;;11.21;66.98;100136.88;8503135;27;20052;-80
2022/10/20 12:42:53;;;;;;;9.00;3.20;;;;;;;11.23;66.70;100129.31;8498054;27;20058;-83
2022/10/20 12:47:03;;;;;;;8.82;3.25;;;;;;;11.18;66.03;100110.44;8470630;27;20043;-83
2022/10/20 12:51:31;;;;;;;7.32;3.30;;;;;;;11.09;66.75;100114.88;8494261;27;20500;-80
2022/10/20 12:55:36;;;;;;;7.70;3.17;;;;;;;11.51;65.14;100107.88;8512760;27;20047;-80
2022/10/20 12:59:40;;;;;;;6.00;2.92;;;;;;;12.53;62.46;100087.09;8446802;27;20050;-81
2022/10/20 13:03:45;;;;;;;6.60;2.60;;;;;;;13.14;62.34;100090.63;8489049;27;20048;-81
2022/10/20 13:07:51;;;;;;;14.68;3.25;;;;;;;13.73;60.69;100089.66;8493784;27;20039;-79
2022/10/20 13:11:58;;;;;;;6.32;2.55;;;;;;;14.12;58.94;100083.59;8502180;27;20047;-80
2022/10/20 13:16:00;;;;;;;10.45;3.10;;;;;;;14.83;57.72;100081.81;8526645;27;20141;-82
2022/10/20 13:20:15;;;;;;;6.70;3.13;;;;;;;15.15;55.00;100089.63;8523704;27;20046;-81
2022/10/20 13:24:29;;;;;;;12.40;4.88;;;;;;;14.59;56.49;100088.41;8491230;27;20043;-81
2022/10/20 13:28:31;;;;;;;9.95;2.70;;;;;;;14.05;56.98;100083.22;8504995;27;20077;-81
2022/10/20 13:32:40;;;;;;;8.40;3.88;;;;;;;13.61;58.74;100083.94;8513542;27;20179;-81
2022/10/20 13:37:00;;;;;;;9.32;3.85;;;;;;;13.18;59.30;100075.34;8487584;27;20062;-83
2022/10/20 13:41:17;;;;;;;4.25;2.25;;;;;;;12.61;58.79;100072.09;8513392;27;20043;-80
2022/10/20 13:45:37;;;;;;;5.68;2.55;;;;;;;12.31;58.92;100075.31;8498906;27;20062;-83
2022/10/20 13:50:01;;;;;;;3.35;2.22;;;;;;;12.01;59.32;100074.69;8500013;27;20403;-81
2022/10/20 13:54:03;;;;;;;6.25;2.78;;;;;;;11.82;59.96;100071.22;8516743;27;20039;-81
2022/10/20 13:58:16;;;;;;;5.20;2.60;;;;;;;11.56;59.75;100067.22;8518933;27;20567;-81
2022/10/20 14:02:24;;;;;;;6.65;3.08;;;;;;;11.41;60.27;100060.94;8483474;27;20034;-84
2022/10/20 14:06:34;;;;;;;5.18;2.40;;;;;;;11.37;59.54;100059.88;8468537;27;20051;-82
2022/10/20 14:11:03;;;;;;;5.32;2.50;;;;;;;11.35;59.90;100051.28;8500638;27;20043;-80
2022/10/20 14:15:05;;;;;;;7.30;2.57;;;;;;;11.25;60.49;100040.59;8384709;28;20505;-82
2022/10/20 14:19:10;;;;;;;7.15;2.40;;;;;;;11.16;60.79;100038.81;8392492;28;20298;-82
2022/10/20 14:23:12;;;;;;;6.00;2.55;;;;;;;11.05;61.67;100030.00;8384823;28;20503;-82
2022/10/20 14:27:33;;;;;;;14.05;4.28;;;;;;;10.97;62.52;100038.78;8391838;28;20062;-82
2022/10/20 14:31:34;;;;;;;8.90;4.50;;;;;;;10.87;62.34;100022.69;8358035;28;20506;-79
2022/10/20 14:35:40;;;;;;;5.15;2.50;;;;;;;10.80;62.14;100022.22;8331502;28;20068;-81
2022/10/20 14:39:41;;;;;;;9.43;4.55;;;;;;;10.72;62.45;100020.16;8334287;28;20044;-80
2022/10/20 14:43:44;;;;;;;10.40;3.10;;;;;;;10.68;62.62;100024.53;8342539;28;20090;-80
2022/10/20 14:47:46;;;;;;;8.95;3.60;;;;;;;10.63;63.03;100017.25;8341440;28;20057;-82
2022/10/20 14:52:16;;;;;;;7.05;3.03;;;;;;;10.52;63.61;100011.16;8398145;28;20129;-82
2022/10/20 14:56:23;;;;;;;7.60;3.40;;;;;;;10.41;64.10;99998.88;8348927;28;20148;-82
2022/10/20 15:00:29;;;;;;;7.80;3.60;;;;;;;10.37;64.16;99997.81;8319545;28;20489;-80
2022/10/20 15:04:31;;;;;;;7.80;3.60;;;;;;;10.30;64.67;99991.97;8365638;28;20194;-81
2022/10/20 15:08:32;;;;;;;5.15;2.83;;;;;;;10.17;65.11;99981.81;8409644;28;20055;-82
2022/10/20 15:12:36;;;;;;;7.53;2.90;;;;;;;10.09;65.42;99990.53;8417219;28;20044;-82
2022/10/20 15:16:43;;;;;;;16.13;3.35;;;;;;;10.00;65.67;99981.41;8404794;28;20486;-83
2022/10/20 15:20:46;;;;;;;10.43;3.60;;;;;;;9.88;66.24;99972.91;8394850;28;20498;-83
2022/10/20 15:24:48;;;;;;;7.38;3.55;;;;;;;9.78;66.60;99967.59;8401697;28;20588;-82
2022/10/20 15:28:49;;;;;;;18.75;8.00;;;;;;;9.66;67.04;99959.84;8394308;28;20131;-82
2022/10/20 15:32:51;;;;;;;7.35;3.38;;;;;;;9.54;67.37;99962.91;8457736;27;20043;-82
2022/10/20 15:36:53;;;;;;;7.88;3.15;;;;;;;9.41;67.74;99963.53;8487427;27;20138;-82
2022/10/20 15:40:54;;;;;;;10.77;3.50;;;;;;;9.28;68.25;99958.75;8489955;27;20453;-81
2022/10/20 15:44:57;;;;;;;10.27;4.25;;;;;;;9.17;68.40;99957.22;8473279;27;20048;-82
2022/10/20 15:48:58;;;;;;;15.35;4.18;;;;;;;9.06;69.03;99955.66;8476079;27;20035;-81
2022/10/20 15:52:59;;;;;;;16.95;6.43;;;;;;;8.98;69.09;99953.56;8474924;27;20043;-81
2022/10/20 15:57:00;;;;;;;16.05;5.80;;;;;;;8.86;69.64;99957.38;8443539;27;20420;-82
2022/10/20 16:01:01;;;;;;;13.93;6.05;;;;;;;8.77;69.88;99955.53;8470803;27;20119;-81
2022/10/20 16:05:02;;;;;;;17.52;7.07;;;;;;;8.68;69.94;99960.69;8468949;27;20051;-82
2022/10/20 16:09:04;;;;;;;13.55;6.22;;;;;;;8.58;70.19;99949.13;8472934;27;20048;-82
2022/10/20 16:13:05;;;;;;;10.38;5.05;;;;;;;8.50;70.51;99941.66;8470145;27;20039;-81
2022/10/20 16:17:06;;;;;;;21.50;9.35;;;;;;;8.42;70.66;99940.31;8481322;27;20054;-82
2022/10/20 16:21:07;;;;;;;19.30;8.43;;;;;;;8.35;70.89;99929.03;8450711;27;20507;-82
2022/10/20 16:25:08;;;;;;;18.38;7.35;;;;;;;8.27;70.89;99926.88;8513270;27;20500;-82
2022/10/20 16:29:09;;;;;;;19.05;7.85;;;;;;;8.25;71.27;99929.03;8512762;27;20137;-82
2022/10/20 16:33:10;;;;;;;12.93;6.55;;;;;;;8.15;71.30;99929.03;8513365;27;20484;-82
2022/10/20 16:37:11;;;;;;;9.23;4.38;;;;;;;8.13;71.42;99936.59;8509846;27;20054;-82
2022/10/20 16:41:15;;;;;;;9.88;4.05;;;;;;;8.10;71.52;99939.81;8512411;27;20047;-81
2022/10/20 16:45:16;;;;;;;12.07;3.90;;;;;;;8.04;71.76;99923.69;8417090;28;20209;-81
2022/10/20 16:49:17;;;;;;;15.38;5.95;;;;;;;7.97;72.02;99923.19;8425636;28;20039;-82
2022/10/20 16:53:18;;;;;;;11.57;5.72;;;;;;;7.89;72.25;99931.78;8399219;28;20133;-82
2022/10/20 16:57:20;;;;;;;24.33;6.50;;;;;;;7.82;72.67;99920.50;8414814;28;20070;-81
2022/10/20 17:01:22;;;;;;;15.98;6.38;;;;;;;7.79;73.00;99931.78;8423306;28;20511;-81
2022/10/20 17:05:23;;;;;;;21.27;8.13;;;;;;;7.73;73.03;99921.31;8412289;28;20037;-81
2022/10/20 17:09:24;;;;;;;23.55;7.82;;;;;;;7.67;73.16;99917.81;8427285;28;20131;-80
2022/10/20 17:13:26;;;;;;;20.95;8.43;;;;;;;7.58;73.63;99919.44;8419608;28;20048;-80
2022/10/20 17:17:27;;;;;;;23.08;7.93;;;;;;;7.51;73.86;99918.88;8506152;27;20043;-81
2022/10/20 17:21:29;;;;;;;24.08;9.07;;;;;;;7.46;74.36;99933.13;8513344;27;20035;-80
2022/10/20 17:25:31;;;;;;;20.50;9.00;;;;;;;7.40;74.51;99928.03;8487440;27;20096;-80
2022/10/20 17:29:32;;;;;;;22.63;9.57;;;;;;;7.40;74.63;99917.28;8502858;27;20050;-81
2022/10/20 17:33:33;;;;;;;21.98;9.70;;;;;;;7.36;74.99;99926.94;8477940;27;20066;-80
2022/10/20 17:37:34;;;;;;;24.98;10.57;;;;;;;7.33;75.20;99919.44;8510458;27;20659;-81
2022/10/20 17:41:35;;;;;;;29.08;10.65;;;;;;;7.27;75.23;99917.81;8517602;27;20054;-81
2022/10/20 17:45:36;;;;;;;28.08;12.00;;;;;;;7.21;75.54;99920.47;8520277;27;20065;-80
2022/10/20 17:49:37;;;;;;;43.58;15.85;;;;;;;7.17;75.69;99918.59;8509797;27;20031;-80
2022/10/20 17:53:44;;;;;;;25.58;12.48;;;;;;;7.11;76.04;99925.84;8501631;27;20424;-79
2022/10/20 17:57:45;;;;;;;32.75;13.02;;;;;;;7.10;76.18;99907.28;8501593;27;20047;-80
2022/10/20 18:01:46;;;;;;;31.60;12.77;;;;;;;7.06;76.28;99923.16;8445313;27;20051;-80
2022/10/20 18:05:47;;;;;;;26.35;11.88;;;;;;;7.00;76.75;99912.66;8493792;27;20047;-81
2022/10/20 18:09:48;;;;;;;28.42;11.80;;;;;;;6.98;76.77;99910.22;8488430;27;20052;-80
2022/10/20 18:13:50;;;;;;;27.52;12.05;;;;;;;6.96;76.75;99907.00;8503670;27;20050;-83
2022/10/20 18:17:51;;;;;;;31.77;12.25;;;;;;;6.89;77.11;99884.97;8499378;27;20053;-81
2022/10/20 18:21:55;;;;;;;28.45;13.23;;;;;;;6.83;77.30;99869.91;8486671;27;20047;-82
2022/10/20 18:26:05;;;;;;;31.23;12.07;;;;;;;6.79;77.50;99879.59;8513074;27;20139;-79
2022/10/20 18:30:07;;;;;;;27.85;11.35;;;;;;;6.79;77.75;99874.22;8513902;27;20085;-83
2022/10/20 18:34:12;;;;;;;33.55;12.05;;;;;;;6.79;77.57;99858.09;8475933;27;20066;-82
2022/10/20 18:38:13;;;;;;;30.83;12.05;;;;;;;6.81;77.51;99850.59;8515484;27;20134;-84
2022/10/20 18:42:15;;;;;;;30.17;11.90;;;;;;;6.81;77.51;99850.59;8512235;27;20049;-81
2022/10/20 18:46:19;;;;;;;30.77;11.95;;;;;;;6.83;77.76;99842.25;8519982;27;20035;-82
2022/10/20 18:50:20;;;;;;;28.63;11.63;;;;;;;6.81;77.52;99831.81;8519340;27;20054;-82
2022/10/20 18:54:23;;;;;;;31.73;13.55;;;;;;;6.79;77.72;99826.69;8497052;27;20043;-82
2022/10/20 18:58:25;;;;;;;29.55;12.82;;;;;;;6.80;77.84;99827.50;8480569;27;20126;-82
2022/10/20 19:02:27;;;;;;;27.63;12.15;;;;;;;6.82;77.83;99830.72;8461597;27;20195;-82
2022/10/20 19:06:33;;;;;;;31.23;12.63;;;;;;;6.79;78.03;99837.44;8482815;27;20035;-82